sensor_id;sensor_type;location;lat;lon;timestamp;temperature;humidity
9537;DHT22;4807;48.024;11.726;2024-02-04T00:01:55;5.40;99.90
9537;DHT22;4807;48.024;11.726;2024-02-04T00:05:04;5.40;99.90
9537;DHT22;4807;48.024;11.726;2024-02-04T00:08:13;5.40;99.90
9537;DHT22;4807;48.024;11.726;2024-02-04T00:11:25;5.40;99.90
9537;DHT22;4807;48.024;11.726;2024-02-04T00:14:33;5.40;99.90
9537;DHT22;4807;48.024;11.726;2024-02-04T00:17:42;5.40;99.90
9537;DHT22;4807;48.024;11.726;2024-02-04T00:20:50;5.30;99.90
9537;DHT22;4807;48.024;11.726;2024-02-04T00:23:59;5.30;99.90
9537;DHT22;4807;48.024;11.726;2024-02-04T00:27:08;5.30;99.90
9537;DHT22;4807;48.024;11.726;2024-02-04T00:30:17;5.20;99.90
9537;DHT22;4807;48.024;11.726;2024-02-04T00:33:25;5.20;99.90
9537;DHT22;4807;48.024;11.726;2024-02-04T00:36:34;5.20;99.90
9537;DHT22;4807;48.024;11.726;2024-02-04T00:39:42;5.20;99.90
9537;DHT22;4807;48.024;11.726;2024-02-04T00:42:52;5.20;99.90
9537;DHT22;4807;48.024;11.726;2024-02-04T00:46:00;5.20;99.90
9537;DHT22;4807;48.024;11.726;2024-02-04T00:49:09;5.10;99.90
9537;DHT22;4807;48.024;11.726;2024-02-04T00:52:18;5.20;99.90
9537;DHT22;4807;48.024;11.726;2024-02-04T00:55:26;5.20;99.90
9537;DHT22;4807;48.024;11.726;2024-02-04T00:58:36;5.20;99.90
9537;DHT22;4807;48.024;11.726;2024-02-04T01:01:44;5.20;99.90
9537;DHT22;4807;48.024;11.726;2024-02-04T01:04:52;5.20;99.90
9537;DHT22;4807;48.024;11.726;2024-02-04T01:08:02;5.30;99.90
9537;DHT22;4807;48.024;11.726;2024-02-04T01:11:10;5.30;99.90
9537;DHT22;4807;48.024;11.726;2024-02-04T01:14:20;5.30;99.90
9537;DHT22;4807;48.024;11.726;2024-02-04T01:17:28;5.30;99.90
9537;DHT22;4807;48.024;11.726;2024-02-04T01:20:37;5.40;99.90
9537;DHT22;4807;48.024;11.726;2024-02-04T01:23:45;5.30;99.90
9537;DHT22;4807;48.024;11.726;2024-02-04T01:26:53;5.30;99.90
9537;DHT22;4807;48.024;11.726;2024-02-04T01:30:04;5.40;99.90
9537;DHT22;4807;48.024;11.726;2024-02-04T01:33:14;5.30;99.90
9537;DHT22;4807;48.024;11.726;2024-02-04T01:36:23;5.40;99.90
9537;DHT22;4807;48.024;11.726;2024-02-04T01:39:31;5.40;99.90
9537;DHT22;4807;48.024;11.726;2024-02-04T01:42:39;5.30;99.90
9537;DHT22;4807;48.024;11.726;2024-02-04T01:45:50;5.30;99.90
9537;DHT22;4807;48.024;11.726;2024-02-04T01:48:59;5.30;99.90
9537;DHT22;4807;48.024;11.726;2024-02-04T01:52:10;5.20;99.90
9537;DHT22;4807;48.024;11.726;2024-02-04T01:55:20;5.10;99.90
9537;DHT22;4807;48.024;11.726;2024-02-04T01:58:28;5.10;99.90
9537;DHT22;4807;48.024;11.726;2024-02-04T02:01:38;5.00;99.90
9537;DHT22;4807;48.024;11.726;2024-02-04T02:04:47;5.10;99.90
9537;DHT22;4807;48.024;11.726;2024-02-04T02:07:55;5.20;99.90
9537;DHT22;4807;48.024;11.726;2024-02-04T02:11:08;5.20;99.90
9537;DHT22;4807;48.024;11.726;2024-02-04T02:14:30;5.30;99.90
9537;DHT22;4807;48.024;11.726;2024-02-04T02:17:47;5.40;99.90
9537;DHT22;4807;48.024;11.726;2024-02-04T02:21:16;5.40;99.90
9537;DHT22;4807;48.024;11.726;2024-02-04T02:24:38;5.40;99.90
9537;DHT22;4807;48.024;11.726;2024-02-04T02:27:48;5.40;99.90
9537;DHT22;4807;48.024;11.726;2024-02-04T02:30:57;5.40;99.90
9537;DHT22;4807;48.024;11.726;2024-02-04T02:34:06;5.30;99.90
9537;DHT22;4807;48.024;11.726;2024-02-04T02:37:25;5.30;99.90
9537;DHT22;4807;48.024;11.726;2024-02-04T02:40:45;5.30;99.90
9537;DHT22;4807;48.024;11.726;2024-02-04T02:43:56;5.20;99.90
9537;DHT22;4807;48.024;11.726;2024-02-04T02:47:05;5.20;99.90
9537;DHT22;4807;48.024;11.726;2024-02-04T02:50:15;5.30;99.90
9537;DHT22;4807;48.024;11.726;2024-02-04T02:53:24;5.30;99.90
9537;DHT22;4807;48.024;11.726;2024-02-04T02:56:35;5.30;99.90
9537;DHT22;4807;48.024;11.726;2024-02-04T02:59:43;5.40;99.90
9537;DHT22;4807;48.024;11.726;2024-02-04T03:02:52;5.30;99.90
9537;DHT22;4807;48.024;11.726;2024-02-04T03:06:00;5.60;99.90
9537;DHT22;4807;48.024;11.726;2024-02-04T03:09:09;5.60;99.90
9537;DHT22;4807;48.024;11.726;2024-02-04T03:12:19;5.70;99.90
9537;DHT22;4807;48.024;11.726;2024-02-04T03:15:27;5.80;99.90
9537;DHT22;4807;48.024;11.726;2024-02-04T03:18:38;5.80;99.90
9537;DHT22;4807;48.024;11.726;2024-02-04T03:21:48;5.80;99.90
9537;DHT22;4807;48.024;11.726;2024-02-04T03:24:56;5.80;99.90
9537;DHT22;4807;48.024;11.726;2024-02-04T03:28:06;5.70;99.90
9537;DHT22;4807;48.024;11.726;2024-02-04T03:31:19;5.80;99.90
9537;DHT22;4807;48.024;11.726;2024-02-04T03:34:28;5.70;99.90
9537;DHT22;4807;48.024;11.726;2024-02-04T03:37:38;5.80;99.90
9537;DHT22;4807;48.024;11.726;2024-02-04T03:40:46;5.80;99.90
9537;DHT22;4807;48.024;11.726;2024-02-04T03:43:57;5.80;99.90
9537;DHT22;4807;48.024;11.726;2024-02-04T03:47:06;5.80;99.90
9537;DHT22;4807;48.024;11.726;2024-02-04T03:50:15;5.80;99.90
9537;DHT22;4807;48.024;11.726;2024-02-04T03:53:23;5.80;99.90
9537;DHT22;4807;48.024;11.726;2024-02-04T03:56:32;5.80;99.90
9537;DHT22;4807;48.024;11.726;2024-02-04T03:59:44;5.80;99.90
9537;DHT22;4807;48.024;11.726;2024-02-04T04:02:53;5.90;99.90
9537;DHT22;4807;48.024;11.726;2024-02-04T04:06:01;5.80;99.90
9537;DHT22;4807;48.024;11.726;2024-02-04T04:09:09;5.90;99.90
9537;DHT22;4807;48.024;11.726;2024-02-04T04:12:19;5.90;99.90
9537;DHT22;4807;48.024;11.726;2024-02-04T04:15:29;5.90;99.90
9537;DHT22;4807;48.024;11.726;2024-02-04T04:18:38;5.90;99.90
9537;DHT22;4807;48.024;11.726;2024-02-04T04:21:48;6.00;99.90
9537;DHT22;4807;48.024;11.726;2024-02-04T04:24:56;6.00;99.90
9537;DHT22;4807;48.024;11.726;2024-02-04T04:28:05;6.00;99.90
9537;DHT22;4807;48.024;11.726;2024-02-04T04:31:15;6.00;99.90
9537;DHT22;4807;48.024;11.726;2024-02-04T04:34:23;6.10;99.90
9537;DHT22;4807;48.024;11.726;2024-02-04T04:37:31;6.10;99.90
9537;DHT22;4807;48.024;11.726;2024-02-04T04:40:40;6.20;99.90
9537;DHT22;4807;48.024;11.726;2024-02-04T04:43:48;6.20;99.90
9537;DHT22;4807;48.024;11.726;2024-02-04T04:46:57;6.20;99.90
9537;DHT22;4807;48.024;11.726;2024-02-04T04:50:06;6.30;99.90
9537;DHT22;4807;48.024;11.726;2024-02-04T04:53:16;6.30;99.90
9537;DHT22;4807;48.024;11.726;2024-02-04T04:56:25;6.40;99.90
9537;DHT22;4807;48.024;11.726;2024-02-04T04:59:33;6.40;99.90
9537;DHT22;4807;48.024;11.726;2024-02-04T05:02:44;6.40;99.90
9537;DHT22;4807;48.024;11.726;2024-02-04T05:05:52;6.50;99.90
9537;DHT22;4807;48.024;11.726;2024-02-04T05:09:00;6.60;99.90
9537;DHT22;4807;48.024;11.726;2024-02-04T05:12:09;6.70;99.90
9537;DHT22;4807;48.024;11.726;2024-02-04T05:15:17;6.70;99.90
9537;DHT22;4807;48.024;11.726;2024-02-04T05:18:27;6.60;99.90
9537;DHT22;4807;48.024;11.726;2024-02-04T05:21:38;6.60;99.90
9537;DHT22;4807;48.024;11.726;2024-02-04T05:24:47;6.70;99.90
9537;DHT22;4807;48.024;11.726;2024-02-04T05:27:55;6.60;99.90
9537;DHT22;4807;48.024;11.726;2024-02-04T05:31:04;6.70;99.90
9537;DHT22;4807;48.024;11.726;2024-02-04T05:34:14;6.70;99.90
9537;DHT22;4807;48.024;11.726;2024-02-04T05:37:24;6.60;99.90
9537;DHT22;4807;48.024;11.726;2024-02-04T05:40:32;6.60;99.90
9537;DHT22;4807;48.024;11.726;2024-02-04T05:43:41;6.70;99.90
9537;DHT22;4807;48.024;11.726;2024-02-04T05:46:49;6.60;99.90
9537;DHT22;4807;48.024;11.726;2024-02-04T05:49:59;6.50;99.90
9537;DHT22;4807;48.024;11.726;2024-02-04T05:53:08;6.50;99.90
9537;DHT22;4807;48.024;11.726;2024-02-04T05:56:16;6.50;99.90
9537;DHT22;4807;48.024;11.726;2024-02-04T05:59:25;6.50;99.90
9537;DHT22;4807;48.024;11.726;2024-02-04T06:02:34;6.50;99.90
9537;DHT22;4807;48.024;11.726;2024-02-04T06:05:43;6.50;99.90
9537;DHT22;4807;48.024;11.726;2024-02-04T06:08:52;6.50;99.90
9537;DHT22;4807;48.024;11.726;2024-02-04T06:12:00;6.60;99.90
9537;DHT22;4807;48.024;11.726;2024-02-04T06:15:12;6.60;99.90
9537;DHT22;4807;48.024;11.726;2024-02-04T06:18:21;6.70;99.90
9537;DHT22;4807;48.024;11.726;2024-02-04T06:21:31;6.70;99.90
9537;DHT22;4807;48.024;11.726;2024-02-04T06:24:39;6.70;99.90
9537;DHT22;4807;48.024;11.726;2024-02-04T06:27:48;6.70;99.90
9537;DHT22;4807;48.024;11.726;2024-02-04T06:30:56;6.70;99.90
9537;DHT22;4807;48.024;11.726;2024-02-04T06:34:05;6.70;99.90
9537;DHT22;4807;48.024;11.726;2024-02-04T06:37:14;6.60;99.90
9537;DHT22;4807;48.024;11.726;2024-02-04T06:40:23;6.50;99.90
9537;DHT22;4807;48.024;11.726;2024-02-04T06:43:32;7.00;99.90
9537;DHT22;4807;48.024;11.726;2024-02-04T06:46:42;6.50;99.90
9537;DHT22;4807;48.024;11.726;2024-02-04T06:49:51;6.50;99.90
9537;DHT22;4807;48.024;11.726;2024-02-04T06:53:00;6.40;99.90
9537;DHT22;4807;48.024;11.726;2024-02-04T06:56:09;6.40;99.90
9537;DHT22;4807;48.024;11.726;2024-02-04T06:59:17;6.40;99.90
9537;DHT22;4807;48.024;11.726;2024-02-04T07:02:26;6.40;99.90
9537;DHT22;4807;48.024;11.726;2024-02-04T07:05:34;6.40;99.90
9537;DHT22;4807;48.024;11.726;2024-02-04T07:08:44;6.50;99.90
9537;DHT22;4807;48.024;11.726;2024-02-04T07:11:52;6.50;99.90
9537;DHT22;4807;48.024;11.726;2024-02-04T07:15:01;6.60;99.90
9537;DHT22;4807;48.024;11.726;2024-02-04T07:18:09;6.70;99.90
9537;DHT22;4807;48.024;11.726;2024-02-04T07:21:18;6.60;99.90
9537;DHT22;4807;48.024;11.726;2024-02-04T07:24:29;6.50;99.90
9537;DHT22;4807;48.024;11.726;2024-02-04T07:27:37;6.50;99.90
9537;DHT22;4807;48.024;11.726;2024-02-04T07:30:45;6.60;99.90
9537;DHT22;4807;48.024;11.726;2024-02-04T07:33:54;6.60;99.90
9537;DHT22;4807;48.024;11.726;2024-02-04T07:37:02;6.80;99.90
9537;DHT22;4807;48.024;11.726;2024-02-04T07:40:13;6.80;99.90
9537;DHT22;4807;48.024;11.726;2024-02-04T07:43:22;6.00;99.90
9537;DHT22;4807;48.024;11.726;2024-02-04T07:46:30;7.00;99.90
9537;DHT22;4807;48.024;11.726;2024-02-04T07:49:38;7.00;99.90
9537;DHT22;4807;48.024;11.726;2024-02-04T07:52:46;7.10;99.90
9537;DHT22;4807;48.024;11.726;2024-02-04T07:55:57;7.20;99.90
9537;DHT22;4807;48.024;11.726;2024-02-04T07:59:05;7.30;99.90
9537;DHT22;4807;48.024;11.726;2024-02-04T08:02:15;7.50;99.90
9537;DHT22;4807;48.024;11.726;2024-02-04T08:05:23;7.60;99.90
9537;DHT22;4807;48.024;11.726;2024-02-04T08:08:31;7.70;99.90
9537;DHT22;4807;48.024;11.726;2024-02-04T08:11:41;7.90;99.90
9537;DHT22;4807;48.024;11.726;2024-02-04T08:14:49;8.10;99.90
9537;DHT22;4807;48.024;11.726;2024-02-04T08:17:57;8.10;99.90
9537;DHT22;4807;48.024;11.726;2024-02-04T08:21:06;8.30;99.90
9537;DHT22;4807;48.024;11.726;2024-02-04T08:24:15;8.40;99.90
9537;DHT22;4807;48.024;11.726;2024-02-04T08:27:24;8.40;99.90
9537;DHT22;4807;48.024;11.726;2024-02-04T08:30:33;8.30;99.90
9537;DHT22;4807;48.024;11.726;2024-02-04T08:33:41;8.30;99.90
9537;DHT22;4807;48.024;11.726;2024-02-04T08:36:50;8.40;99.90
9537;DHT22;4807;48.024;11.726;2024-02-04T08:39:58;8.40;99.90
9537;DHT22;4807;48.024;11.726;2024-02-04T08:43:09;8.40;99.90
9537;DHT22;4807;48.024;11.726;2024-02-04T08:46:17;8.50;99.90
9537;DHT22;4807;48.024;11.726;2024-02-04T08:49:26;8.70;99.90
9537;DHT22;4807;48.024;11.726;2024-02-04T08:52:34;8.80;99.90
9537;DHT22;4807;48.024;11.726;2024-02-04T08:55:43;9.00;99.90
9537;DHT22;4807;48.024;11.726;2024-02-04T08:58:53;9.00;99.90
9537;DHT22;4807;48.024;11.726;2024-02-04T09:02:01;9.00;99.90
9537;DHT22;4807;48.024;11.726;2024-02-04T09:05:13;9.10;99.90
9537;DHT22;4807;48.024;11.726;2024-02-04T09:08:23;9.30;99.60
9537;DHT22;4807;48.024;11.726;2024-02-04T09:11:31;9.50;99.60
9537;DHT22;4807;48.024;11.726;2024-02-04T09:14:41;9.80;98.90
9537;DHT22;4807;48.024;11.726;2024-02-04T09:17:50;10.00;97.60
9537;DHT22;4807;48.024;11.726;2024-02-04T09:20:58;10.10;97.80
9537;DHT22;4807;48.024;11.726;2024-02-04T09:24:06;10.30;96.80
9537;DHT22;4807;48.024;11.726;2024-02-04T09:27:15;10.20;95.90
9537;DHT22;4807;48.024;11.726;2024-02-04T09:30:25;10.10;95.60
9537;DHT22;4807;48.024;11.726;2024-02-04T09:33:33;10.10;95.90
9537;DHT22;4807;48.024;11.726;2024-02-04T09:36:43;10.00;95.70
9537;DHT22;4807;48.024;11.726;2024-02-04T09:39:52;9.90;95.90
9537;DHT22;4807;48.024;11.726;2024-02-04T09:43:01;10.00;96.20
9537;DHT22;4807;48.024;11.726;2024-02-04T09:46:11;8.20;95.60
9537;DHT22;4807;48.024;11.726;2024-02-04T09:49:21;10.10;95.70
9537;DHT22;4807;48.024;11.726;2024-02-04T09:52:30;10.10;95.70
9537;DHT22;4807;48.024;11.726;2024-02-04T09:55:43;8.10;94.80
9537;DHT22;4807;48.024;11.726;2024-02-04T09:58:52;10.30;95.00
9537;DHT22;4807;48.024;11.726;2024-02-04T10:02:03;10.20;94.80
9537;DHT22;4807;48.024;11.726;2024-02-04T10:05:13;10.30;94.80
9537;DHT22;4807;48.024;11.726;2024-02-04T10:08:22;10.30;94.90
9537;DHT22;4807;48.024;11.726;2024-02-04T10:11:32;10.40;94.70
9537;DHT22;4807;48.024;11.726;2024-02-04T10:14:40;10.40;94.60
9537;DHT22;4807;48.024;11.726;2024-02-04T10:17:50;10.50;94.30
9537;DHT22;4807;48.024;11.726;2024-02-04T10:21:01;10.50;94.40
9537;DHT22;4807;48.024;11.726;2024-02-04T10:24:09;10.60;94.10
9537;DHT22;4807;48.024;11.726;2024-02-04T10:27:17;10.70;94.20
9537;DHT22;4807;48.024;11.726;2024-02-04T10:30:38;10.90;93.70
9537;DHT22;4807;48.024;11.726;2024-02-04T10:33:50;11.10;93.40
9537;DHT22;4807;48.024;11.726;2024-02-04T10:36:58;11.10;94.10
9537;DHT22;4807;48.024;11.726;2024-02-04T10:40:08;11.20;93.30
9537;DHT22;4807;48.024;11.726;2024-02-04T10:43:17;11.30;93.00
9537;DHT22;4807;48.024;11.726;2024-02-04T10:46:28;11.20;93.10
9537;DHT22;4807;48.024;11.726;2024-02-04T10:49:42;11.10;92.90
9537;DHT22;4807;48.024;11.726;2024-02-04T10:52:58;11.00;92.90
9537;DHT22;4807;48.024;11.726;2024-02-04T10:56:25;10.90;93.40
9537;DHT22;4807;48.024;11.726;2024-02-04T10:59:37;10.90;93.50
9537;DHT22;4807;48.024;11.726;2024-02-04T11:02:46;11.10;93.80
9537;DHT22;4807;48.024;11.726;2024-02-04T11:05:59;11.20;93.50
9537;DHT22;4807;48.024;11.726;2024-02-04T11:09:08;11.40;93.10
9537;DHT22;4807;48.024;11.726;2024-02-04T11:12:20;11.70;93.50
9537;DHT22;4807;48.024;11.726;2024-02-04T11:15:35;11.90;92.60
9537;DHT22;4807;48.024;11.726;2024-02-04T11:19:06;11.90;92.00
9537;DHT22;4807;48.024;11.726;2024-02-04T11:22:56;11.90;92.10
9537;DHT22;4807;48.024;11.726;2024-02-04T11:26:22;11.90;92.30
9537;DHT22;4807;48.024;11.726;2024-02-04T11:29:32;12.10;92.20
9537;DHT22;4807;48.024;11.726;2024-02-04T11:32:43;12.00;92.30
9537;DHT22;4807;48.024;11.726;2024-02-04T11:36:03;12.00;92.50
9537;DHT22;4807;48.024;11.726;2024-02-04T11:39:17;11.90;92.30
9537;DHT22;4807;48.024;11.726;2024-02-04T11:42:32;11.90;92.20
9537;DHT22;4807;48.024;11.726;2024-02-04T11:45:42;11.70;92.30
9537;DHT22;4807;48.024;11.726;2024-02-04T11:48:52;11.40;92.90
9537;DHT22;4807;48.024;11.726;2024-02-04T11:52:02;11.10;93.20
9537;DHT22;4807;48.024;11.726;2024-02-04T11:55:15;11.20;93.40
9537;DHT22;4807;48.024;11.726;2024-02-04T11:58:24;11.30;93.10
9537;DHT22;4807;48.024;11.726;2024-02-04T12:01:32;11.60;93.20
9537;DHT22;4807;48.024;11.726;2024-02-04T12:04:43;11.70;92.90
9537;DHT22;4807;48.024;11.726;2024-02-04T12:07:52;11.70;92.00
9537;DHT22;4807;48.024;11.726;2024-02-04T12:11:03;11.60;92.60
9537;DHT22;4807;48.024;11.726;2024-02-04T12:14:13;11.60;92.70
9537;DHT22;4807;48.024;11.726;2024-02-04T12:17:22;11.60;92.50
9537;DHT22;4807;48.024;11.726;2024-02-04T12:20:31;11.50;91.80
9537;DHT22;4807;48.024;11.726;2024-02-04T12:23:40;11.50;92.00
9537;DHT22;4807;48.024;11.726;2024-02-04T12:26:49;11.60;91.90
9537;DHT22;4807;48.024;11.726;2024-02-04T12:29:59;11.60;92.00
9537;DHT22;4807;48.024;11.726;2024-02-04T12:33:07;11.60;92.20
9537;DHT22;4807;48.024;11.726;2024-02-04T12:36:16;11.70;91.80
9537;DHT22;4807;48.024;11.726;2024-02-04T12:39:25;11.70;91.90
9537;DHT22;4807;48.024;11.726;2024-02-04T12:42:35;11.70;91.90
9537;DHT22;4807;48.024;11.726;2024-02-04T12:45:43;11.70;91.90
9537;DHT22;4807;48.024;11.726;2024-02-04T12:48:52;11.60;91.80
9537;DHT22;4807;48.024;11.726;2024-02-04T12:52:05;11.70;91.80
9537;DHT22;4807;48.024;11.726;2024-02-04T12:55:22;11.70;92.20
9537;DHT22;4807;48.024;11.726;2024-02-04T12:58:41;11.70;91.70
9537;DHT22;4807;48.024;11.726;2024-02-04T13:01:55;11.70;91.90
9537;DHT22;4807;48.024;11.726;2024-02-04T13:05:04;11.70;92.10
9537;DHT22;4807;48.024;11.726;2024-02-04T13:08:13;11.80;92.40
9537;DHT22;4807;48.024;11.726;2024-02-04T13:11:21;11.80;91.80
9537;DHT22;4807;48.024;11.726;2024-02-04T13:14:31;11.80;92.00
9537;DHT22;4807;48.024;11.726;2024-02-04T13:17:40;12.00;92.10
9537;DHT22;4807;48.024;11.726;2024-02-04T13:20:48;12.20;91.50
9537;DHT22;4807;48.024;11.726;2024-02-04T13:23:59;12.20;91.00
9537;DHT22;4807;48.024;11.726;2024-02-04T13:27:09;12.20;91.70
9537;DHT22;4807;48.024;11.726;2024-02-04T13:30:19;12.10;91.00
9537;DHT22;4807;48.024;11.726;2024-02-04T13:33:27;12.00;90.90
9537;DHT22;4807;48.024;11.726;2024-02-04T13:36:36;11.90;90.60
9537;DHT22;4807;48.024;11.726;2024-02-04T13:39:45;11.90;90.80
9537;DHT22;4807;48.024;11.726;2024-02-04T13:42:54;12.00;90.70
9537;DHT22;4807;48.024;11.726;2024-02-04T13:46:05;12.10;90.60
9537;DHT22;4807;48.024;11.726;2024-02-04T13:49:14;12.20;90.90
9537;DHT22;4807;48.024;11.726;2024-02-04T13:52:22;12.20;90.60
9537;DHT22;4807;48.024;11.726;2024-02-04T13:55:31;12.20;90.60
9537;DHT22;4807;48.024;11.726;2024-02-04T13:58:39;12.10;90.90
9537;DHT22;4807;48.024;11.726;2024-02-04T14:01:48;12.00;91.10
9537;DHT22;4807;48.024;11.726;2024-02-04T14:04:58;11.90;91.00
9537;DHT22;4807;48.024;11.726;2024-02-04T14:08:07;11.80;91.00
9537;DHT22;4807;48.024;11.726;2024-02-04T14:11:16;11.80;91.20
9537;DHT22;4807;48.024;11.726;2024-02-04T14:14:24;11.80;91.70
9537;DHT22;4807;48.024;11.726;2024-02-04T14:17:34;11.70;91.90
9537;DHT22;4807;48.024;11.726;2024-02-04T14:20:42;11.70;92.10
9537;DHT22;4807;48.024;11.726;2024-02-04T14:23:51;11.70;92.20
9537;DHT22;4807;48.024;11.726;2024-02-04T14:27:00;11.70;91.90
9537;DHT22;4807;48.024;11.726;2024-02-04T14:30:09;11.60;92.10
9537;DHT22;4807;48.024;11.726;2024-02-04T14:33:19;11.60;92.20
9537;DHT22;4807;48.024;11.726;2024-02-04T14:36:28;11.60;91.80
9537;DHT22;4807;48.024;11.726;2024-02-04T14:39:37;11.60;92.20
9537;DHT22;4807;48.024;11.726;2024-02-04T14:42:45;11.70;92.40
9537;DHT22;4807;48.024;11.726;2024-02-04T14:45:54;11.70;92.30
9537;DHT22;4807;48.024;11.726;2024-02-04T14:49:03;11.70;92.60
9537;DHT22;4807;48.024;11.726;2024-02-04T14:52:12;11.60;92.80
9537;DHT22;4807;48.024;11.726;2024-02-04T14:55:21;11.60;93.10
9537;DHT22;4807;48.024;11.726;2024-02-04T14:58:30;11.50;93.00
9537;DHT22;4807;48.024;11.726;2024-02-04T15:01:38;11.50;92.80
9537;DHT22;4807;48.024;11.726;2024-02-04T15:04:48;11.50;92.90
9537;DHT22;4807;48.024;11.726;2024-02-04T15:07:57;11.50;92.80
9537;DHT22;4807;48.024;11.726;2024-02-04T15:11:05;11.50;92.80
9537;DHT22;4807;48.024;11.726;2024-02-04T15:14:17;11.50;93.00
9537;DHT22;4807;48.024;11.726;2024-02-04T15:17:30;11.40;93.20
9537;DHT22;4807;48.024;11.726;2024-02-04T15:20:48;11.40;93.10
9537;DHT22;4807;48.024;11.726;2024-02-04T15:24:01;11.30;93.20
9537;DHT22;4807;48.024;11.726;2024-02-04T15:27:12;11.30;92.90
9537;DHT22;4807;48.024;11.726;2024-02-04T15:30:21;11.40;92.90
9537;DHT22;4807;48.024;11.726;2024-02-04T15:33:30;11.20;92.80
9537;DHT22;4807;48.024;11.726;2024-02-04T15:36:40;11.20;92.80
9537;DHT22;4807;48.024;11.726;2024-02-04T15:39:49;11.20;93.00
9537;DHT22;4807;48.024;11.726;2024-02-04T15:42:59;11.20;92.80
9537;DHT22;4807;48.024;11.726;2024-02-04T15:46:10;11.20;92.90
9537;DHT22;4807;48.024;11.726;2024-02-04T15:49:20;11.10;92.90
9537;DHT22;4807;48.024;11.726;2024-02-04T15:52:31;11.20;92.70
9537;DHT22;4807;48.024;11.726;2024-02-04T15:55:40;11.10;92.60
9537;DHT22;4807;48.024;11.726;2024-02-04T15:58:54;11.10;92.60
9537;DHT22;4807;48.024;11.726;2024-02-04T16:02:13;11.10;92.70
9537;DHT22;4807;48.024;11.726;2024-02-04T16:05:24;11.00;92.60
9537;DHT22;4807;48.024;11.726;2024-02-04T16:08:35;11.00;92.70
9537;DHT22;4807;48.024;11.726;2024-02-04T16:11:51;11.00;92.50
9537;DHT22;4807;48.024;11.726;2024-02-04T16:15:07;11.20;92.70
9537;DHT22;4807;48.024;11.726;2024-02-04T16:18:17;11.00;92.80
9537;DHT22;4807;48.024;11.726;2024-02-04T16:21:33;11.00;92.70
9537;DHT22;4807;48.024;11.726;2024-02-04T16:24:49;11.00;92.80
9537;DHT22;4807;48.024;11.726;2024-02-04T16:27:57;11.10;93.00
9537;DHT22;4807;48.024;11.726;2024-02-04T16:31:07;11.10;93.10
9537;DHT22;4807;48.024;11.726;2024-02-04T16:34:15;11.00;93.30
9537;DHT22;4807;48.024;11.726;2024-02-04T16:37:24;11.00;93.40
9537;DHT22;4807;48.024;11.726;2024-02-04T16:40:34;11.10;93.60
9537;DHT22;4807;48.024;11.726;2024-02-04T16:43:43;11.00;93.70
9537;DHT22;4807;48.024;11.726;2024-02-04T16:46:51;11.00;93.80
9537;DHT22;4807;48.024;11.726;2024-02-04T16:50:02;11.00;93.70
9537;DHT22;4807;48.024;11.726;2024-02-04T16:53:11;10.90;93.90
9537;DHT22;4807;48.024;11.726;2024-02-04T16:56:22;11.00;93.90
9537;DHT22;4807;48.024;11.726;2024-02-04T16:59:31;11.00;93.90
9537;DHT22;4807;48.024;11.726;2024-02-04T17:02:39;11.00;94.10
9537;DHT22;4807;48.024;11.726;2024-02-04T17:05:48;10.90;94.10
9537;DHT22;4807;48.024;11.726;2024-02-04T17:09:03;10.90;94.10
9537;DHT22;4807;48.024;11.726;2024-02-04T17:12:23;10.90;94.50
9537;DHT22;4807;48.024;11.726;2024-02-04T17:15:33;10.90;94.30
9537;DHT22;4807;48.024;11.726;2024-02-04T17:18:48;10.80;94.20
9537;DHT22;4807;48.024;11.726;2024-02-04T17:22:05;10.90;94.20
9537;DHT22;4807;48.024;11.726;2024-02-04T17:25:22;10.80;94.20
9537;DHT22;4807;48.024;11.726;2024-02-04T17:28:39;10.80;94.50
9537;DHT22;4807;48.024;11.726;2024-02-04T17:31:48;10.80;94.50
9537;DHT22;4807;48.024;11.726;2024-02-04T17:34:58;10.80;94.50
9537;DHT22;4807;48.024;11.726;2024-02-04T17:38:08;10.70;94.60
9537;DHT22;4807;48.024;11.726;2024-02-04T17:41:16;10.90;94.70
9537;DHT22;4807;48.024;11.726;2024-02-04T17:44:26;10.70;94.50
9537;DHT22;4807;48.024;11.726;2024-02-04T17:47:35;10.70;94.70
9537;DHT22;4807;48.024;11.726;2024-02-04T17:50:45;10.60;94.80
9537;DHT22;4807;48.024;11.726;2024-02-04T17:53:54;10.50;94.80
9537;DHT22;4807;48.024;11.726;2024-02-04T17:57:03;10.50;94.90
9537;DHT22;4807;48.024;11.726;2024-02-04T18:00:16;10.30;95.10
9537;DHT22;4807;48.024;11.726;2024-02-04T18:03:24;10.20;95.00
9537;DHT22;4807;48.024;11.726;2024-02-04T18:06:36;10.20;95.00
9537;DHT22;4807;48.024;11.726;2024-02-04T18:09:46;10.20;95.00
9537;DHT22;4807;48.024;11.726;2024-02-04T18:12:55;10.20;94.80
9537;DHT22;4807;48.024;11.726;2024-02-04T18:16:06;10.10;95.00
9537;DHT22;4807;48.024;11.726;2024-02-04T18:19:15;10.10;95.00
9537;DHT22;4807;48.024;11.726;2024-02-04T18:22:25;10.00;94.70
9537;DHT22;4807;48.024;11.726;2024-02-04T18:25:34;9.90;95.50
9537;DHT22;4807;48.024;11.726;2024-02-04T18:28:42;9.80;95.50
9537;DHT22;4807;48.024;11.726;2024-02-04T18:31:52;9.50;96.00
9537;DHT22;4807;48.024;11.726;2024-02-04T18:35:01;9.70;95.50
9537;DHT22;4807;48.024;11.726;2024-02-04T18:38:09;9.70;95.30
9537;DHT22;4807;48.024;11.726;2024-02-04T18:41:18;9.70;95.40
9537;DHT22;4807;48.024;11.726;2024-02-04T18:44:28;9.60;95.50
9537;DHT22;4807;48.024;11.726;2024-02-04T18:47:38;9.60;95.90
9537;DHT22;4807;48.024;11.726;2024-02-04T18:50:47;9.60;95.30
9537;DHT22;4807;48.024;11.726;2024-02-04T18:53:55;9.70;95.30
9537;DHT22;4807;48.024;11.726;2024-02-04T18:57:04;9.50;95.40
9537;DHT22;4807;48.024;11.726;2024-02-04T19:00:13;9.50;95.40
9537;DHT22;4807;48.024;11.726;2024-02-04T19:03:23;9.40;95.30
9537;DHT22;4807;48.024;11.726;2024-02-04T19:06:31;9.40;95.50
9537;DHT22;4807;48.024;11.726;2024-02-04T19:09:39;9.30;95.60
9537;DHT22;4807;48.024;11.726;2024-02-04T19:12:48;9.30;95.80
9537;DHT22;4807;48.024;11.726;2024-02-04T19:15:56;9.20;95.90
9537;DHT22;4807;48.024;11.726;2024-02-04T19:19:06;9.20;96.00
9537;DHT22;4807;48.024;11.726;2024-02-04T19:22:16;9.20;95.90
9537;DHT22;4807;48.024;11.726;2024-02-04T19:25:25;9.30;96.00
9537;DHT22;4807;48.024;11.726;2024-02-04T19:28:33;9.30;96.00
9537;DHT22;4807;48.024;11.726;2024-02-04T19:31:41;9.30;96.00
9537;DHT22;4807;48.024;11.726;2024-02-04T19:34:52;9.30;95.80
9537;DHT22;4807;48.024;11.726;2024-02-04T19:38:00;9.40;95.70
9537;DHT22;4807;48.024;11.726;2024-02-04T19:41:09;9.40;95.70
9537;DHT22;4807;48.024;11.726;2024-02-04T19:44:17;9.40;95.80
9537;DHT22;4807;48.024;11.726;2024-02-04T19:47:26;9.40;95.80
9537;DHT22;4807;48.024;11.726;2024-02-04T19:50:35;9.30;96.00
9537;DHT22;4807;48.024;11.726;2024-02-04T19:53:44;9.40;95.90
9537;DHT22;4807;48.024;11.726;2024-02-04T19:56:52;9.30;95.90
9537;DHT22;4807;48.024;11.726;2024-02-04T20:00:01;9.20;96.00
9537;DHT22;4807;48.024;11.726;2024-02-04T20:03:16;9.10;96.10
9537;DHT22;4807;48.024;11.726;2024-02-04T20:06:30;9.10;96.30
9537;DHT22;4807;48.024;11.726;2024-02-04T20:09:38;9.20;95.70
9537;DHT22;4807;48.024;11.726;2024-02-04T20:12:47;9.20;95.50
9537;DHT22;4807;48.024;11.726;2024-02-04T20:15:59;9.10;95.40
9537;DHT22;4807;48.024;11.726;2024-02-04T20:19:09;9.00;95.40
9537;DHT22;4807;48.024;11.726;2024-02-04T20:22:19;9.10;95.40
9537;DHT22;4807;48.024;11.726;2024-02-04T20:25:29;9.10;95.30
9537;DHT22;4807;48.024;11.726;2024-02-04T20:28:40;9.00;95.40
9537;DHT22;4807;48.024;11.726;2024-02-04T20:31:48;9.00;95.30